sensor_id;sensor_type;location;lat;lon;timestamp;P1;durP1;ratioP1;P2;durP2;ratioP2
3779;SDS011;1905;52.482;9.802;2022-07-30T00:00:51;8.70;;;3.87;;
3779;SDS011;1905;52.482;9.802;2022-07-30T00:03:18;7.33;;;4.20;;
3779;SDS011;1905;52.482;9.802;2022-07-30T00:05:46;5.33;;;3.80;;
3779;SDS011;1905;52.482;9.802;2022-07-30T00:08:14;3.63;;;3.17;;
3779;SDS011;1905;52.482;9.802;2022-07-30T00:10:41;5.47;;;3.77;;
3779;SDS011;1905;52.482;9.802;2022-07-30T00:13:11;4.20;;;3.73;;
3779;SDS011;1905;52.482;9.802;2022-07-30T00:15:41;6.53;;;4.03;;
3779;SDS011;1905;52.482;9.802;2022-07-30T00:18:08;5.30;;;3.90;;
3779;SDS011;1905;52.482;9.802;2022-07-30T00:20:38;3.73;;;3.43;;
3779;SDS011;1905;52.482;9.802;2022-07-30T00:23:09;6.57;;;3.27;;
3779;SDS011;1905;52.482;9.802;2022-07-30T00:25:37;4.87;;;3.53;;
3779;SDS011;1905;52.482;9.802;2022-07-30T00:28:04;4.07;;;3.67;;
3779;SDS011;1905;52.482;9.802;2022-07-30T00:30:32;7.03;;;3.63;;
3779;SDS011;1905;52.482;9.802;2022-07-30T00:33:01;5.03;;;3.60;;
3779;SDS011;1905;52.482;9.802;2022-07-30T00:35:28;6.23;;;3.13;;
3779;SDS011;1905;52.482;9.802;2022-07-30T00:37:56;7.17;;;3.57;;
3779;SDS011;1905;52.482;9.802;2022-07-30T00:40:24;4.17;;;3.77;;
3779;SDS011;1905;52.482;9.802;2022-07-30T00:42:51;6.23;;;3.43;;
3779;SDS011;1905;52.482;9.802;2022-07-30T00:45:19;6.70;;;3.97;;
3779;SDS011;1905;52.482;9.802;2022-07-30T00:47:47;5.60;;;4.50;;
3779;SDS011;1905;52.482;9.802;2022-07-30T00:50:16;4.10;;;3.23;;
3779;SDS011;1905;52.482;9.802;2022-07-30T00:52:44;5.60;;;3.50;;
3779;SDS011;1905;52.482;9.802;2022-07-30T00:55:13;6.27;;;5.10;;
3779;SDS011;1905;52.482;9.802;2022-07-30T00:57:41;5.93;;;4.23;;
3779;SDS011;1905;52.482;9.802;2022-07-30T01:00:11;9.80;;;4.37;;
3779;SDS011;1905;52.482;9.802;2022-07-30T01:02:40;6.10;;;4.43;;
3779;SDS011;1905;52.482;9.802;2022-07-30T01:05:08;4.83;;;4.33;;
3779;SDS011;1905;52.482;9.802;2022-07-30T01:07:38;7.13;;;4.60;;
3779;SDS011;1905;52.482;9.802;2022-07-30T01:10:07;6.77;;;4.53;;
3779;SDS011;1905;52.482;9.802;2022-07-30T01:12:36;6.77;;;3.40;;
3779;SDS011;1905;52.482;9.802;2022-07-30T01:15:05;5.47;;;4.00;;
3779;SDS011;1905;52.482;9.802;2022-07-30T01:17:34;8.30;;;4.50;;
3779;SDS011;1905;52.482;9.802;2022-07-30T01:20:03;6.20;;;3.80;;
3779;SDS011;1905;52.482;9.802;2022-07-30T01:22:44;4.17;;;3.77;;
3779;SDS011;1905;52.482;9.802;2022-07-30T01:25:19;5.13;;;4.50;;
3779;SDS011;1905;52.482;9.802;2022-07-30T01:27:56;6.53;;;4.93;;
3779;SDS011;1905;52.482;9.802;2022-07-30T01:30:27;7.07;;;4.13;;
3779;SDS011;1905;52.482;9.802;2022-07-30T01:33:00;4.60;;;4.17;;
3779;SDS011;1905;52.482;9.802;2022-07-30T01:35:31;5.97;;;4.20;;
3779;SDS011;1905;52.482;9.802;2022-07-30T01:38:00;6.10;;;4.30;;
3779;SDS011;1905;52.482;9.802;2022-07-30T01:40:30;5.33;;;3.93;;
3779;SDS011;1905;52.482;9.802;2022-07-30T01:43:00;4.10;;;3.70;;
3779;SDS011;1905;52.482;9.802;2022-07-30T01:45:30;4.70;;;3.80;;
3779;SDS011;1905;52.482;9.802;2022-07-30T01:48:07;9.50;;;3.60;;
3779;SDS011;1905;52.482;9.802;2022-07-30T01:50:37;4.93;;;4.47;;
3779;SDS011;1905;52.482;9.802;2022-07-30T01:53:13;4.17;;;3.23;;
3779;SDS011;1905;52.482;9.802;2022-07-30T01:55:43;5.30;;;4.10;;
3779;SDS011;1905;52.482;9.802;2022-07-30T01:58:13;7.50;;;4.50;;
3779;SDS011;1905;52.482;9.802;2022-07-30T02:00:46;9.30;;;4.10;;
3779;SDS011;1905;52.482;9.802;2022-07-30T02:03:15;4.03;;;3.70;;
3779;SDS011;1905;52.482;9.802;2022-07-30T02:05:44;5.73;;;4.60;;
3779;SDS011;1905;52.482;9.802;2022-07-30T02:08:20;6.93;;;4.40;;
3779;SDS011;1905;52.482;9.802;2022-07-30T02:10:56;11.30;;;4.30;;
3779;SDS011;1905;52.482;9.802;2022-07-30T02:13:30;4.43;;;3.27;;
3779;SDS011;1905;52.482;9.802;2022-07-30T02:16:02;4.63;;;4.33;;
3779;SDS011;1905;52.482;9.802;2022-07-30T02:18:37;4.20;;;3.70;;
3779;SDS011;1905;52.482;9.802;2022-07-30T02:21:13;4.70;;;4.13;;
3779;SDS011;1905;52.482;9.802;2022-07-30T02:23:45;4.87;;;3.47;;
3779;SDS011;1905;52.482;9.802;2022-07-30T02:26:18;3.87;;;3.47;;
3779;SDS011;1905;52.482;9.802;2022-07-30T02:28:53;5.77;;;4.10;;
3779;SDS011;1905;52.482;9.802;2022-07-30T02:31:24;4.57;;;4.17;;
3779;SDS011;1905;52.482;9.802;2022-07-30T02:33:57;4.70;;;3.63;;
3779;SDS011;1905;52.482;9.802;2022-07-30T02:36:27;5.10;;;3.50;;
3779;SDS011;1905;52.482;9.802;2022-07-30T02:38:57;8.30;;;3.90;;
3779;SDS011;1905;52.482;9.802;2022-07-30T02:41:27;7.63;;;4.30;;
3779;SDS011;1905;52.482;9.802;2022-07-30T02:43:59;7.43;;;4.03;;
3779;SDS011;1905;52.482;9.802;2022-07-30T02:46:28;8.10;;;3.90;;
3779;SDS011;1905;52.482;9.802;2022-07-30T02:49:16;5.60;;;3.70;;
3779;SDS011;1905;52.482;9.802;2022-07-30T02:51:47;3.57;;;3.23;;
3779;SDS011;1905;52.482;9.802;2022-07-30T02:54:17;5.67;;;4.20;;
3779;SDS011;1905;52.482;9.802;2022-07-30T02:56:46;5.20;;;4.37;;
3779;SDS011;1905;52.482;9.802;2022-07-30T02:59:19;4.37;;;3.97;;
3779;SDS011;1905;52.482;9.802;2022-07-30T03:01:48;6.23;;;3.70;;
3779;SDS011;1905;52.482;9.802;2022-07-30T03:04:18;4.27;;;3.87;;
3779;SDS011;1905;52.482;9.802;2022-07-30T03:06:47;7.30;;;3.40;;
3779;SDS011;1905;52.482;9.802;2022-07-30T03:09:15;6.03;;;3.70;;
3779;SDS011;1905;52.482;9.802;2022-07-30T03:11:43;4.23;;;2.90;;
3779;SDS011;1905;52.482;9.802;2022-07-30T03:14:13;5.10;;;4.10;;
3779;SDS011;1905;52.482;9.802;2022-07-30T03:16:42;4.43;;;4.03;;
3779;SDS011;1905;52.482;9.802;2022-07-30T03:19:15;4.13;;;3.80;;
3779;SDS011;1905;52.482;9.802;2022-07-30T03:21:46;4.77;;;4.00;;
3779;SDS011;1905;52.482;9.802;2022-07-30T03:24:15;4.40;;;3.90;;
3779;SDS011;1905;52.482;9.802;2022-07-30T03:26:44;5.20;;;3.83;;
3779;SDS011;1905;52.482;9.802;2022-07-30T03:29:13;7.80;;;4.37;;
3779;SDS011;1905;52.482;9.802;2022-07-30T03:31:48;4.03;;;3.70;;
3779;SDS011;1905;52.482;9.802;2022-07-30T03:34:18;6.97;;;4.40;;
3779;SDS011;1905;52.482;9.802;2022-07-30T03:36:49;5.77;;;4.20;;
3779;SDS011;1905;52.482;9.802;2022-07-30T03:39:18;6.30;;;4.00;;
3779;SDS011;1905;52.482;9.802;2022-07-30T03:41:46;3.80;;;3.50;;
3779;SDS011;1905;52.482;9.802;2022-07-30T03:44:15;8.17;;;4.40;;
3779;SDS011;1905;52.482;9.802;2022-07-30T03:46:45;6.50;;;4.70;;
3779;SDS011;1905;52.482;9.802;2022-07-30T03:49:21;5.10;;;4.60;;
3779;SDS011;1905;52.482;9.802;2022-07-30T03:51:50;4.73;;;4.33;;
3779;SDS011;1905;52.482;9.802;2022-07-30T03:54:19;5.80;;;3.90;;
3779;SDS011;1905;52.482;9.802;2022-07-30T03:57:03;5.33;;;4.47;;
3779;SDS011;1905;52.482;9.802;2022-07-30T03:59:40;5.97;;;5.33;;
3779;SDS011;1905;52.482;9.802;2022-07-30T04:02:09;7.33;;;4.57;;
3779;SDS011;1905;52.482;9.802;2022-07-30T04:05:01;4.77;;;4.27;;
3779;SDS011;1905;52.482;9.802;2022-07-30T04:07:29;4.93;;;4.30;;
3779;SDS011;1905;52.482;9.802;2022-07-30T04:09:56;5.77;;;4.93;;
3779;SDS011;1905;52.482;9.802;2022-07-30T04:12:43;5.37;;;4.87;;
3779;SDS011;1905;52.482;9.802;2022-07-30T04:15:11;3.50;;;3.30;;
3779;SDS011;1905;52.482;9.802;2022-07-30T04:18:01;4.60;;;3.90;;
3779;SDS011;1905;52.482;9.802;2022-07-30T04:20:33;7.63;;;5.43;;
3779;SDS011;1905;52.482;9.802;2022-07-30T04:23:06;8.30;;;5.57;;
3779;SDS011;1905;52.482;9.802;2022-07-30T04:25:34;5.53;;;4.87;;
3779;SDS011;1905;52.482;9.802;2022-07-30T04:28:02;4.30;;;4.00;;
3779;SDS011;1905;52.482;9.802;2022-07-30T04:30:31;5.40;;;4.50;;
3779;SDS011;1905;52.482;9.802;2022-07-30T04:33:01;5.50;;;4.80;;
3779;SDS011;1905;52.482;9.802;2022-07-30T04:35:47;5.97;;;4.93;;
3779;SDS011;1905;52.482;9.802;2022-07-30T04:38:24;7.10;;;5.13;;
3779;SDS011;1905;52.482;9.802;2022-07-30T04:40:54;6.23;;;5.63;;
3779;SDS011;1905;52.482;9.802;2022-07-30T04:43:22;6.73;;;5.30;;
3779;SDS011;1905;52.482;9.802;2022-07-30T04:45:49;7.00;;;5.90;;
3779;SDS011;1905;52.482;9.802;2022-07-30T04:48:18;5.80;;;5.20;;
3779;SDS011;1905;52.482;9.802;2022-07-30T04:51:04;5.33;;;4.73;;
3779;SDS011;1905;52.482;9.802;2022-07-30T04:53:35;6.83;;;4.37;;
3779;SDS011;1905;52.482;9.802;2022-07-30T04:56:04;6.60;;;5.83;;
3779;SDS011;1905;52.482;9.802;2022-07-30T04:58:34;8.10;;;5.70;;
3779;SDS011;1905;52.482;9.802;2022-07-30T05:01:03;5.93;;;5.20;;
3779;SDS011;1905;52.482;9.802;2022-07-30T05:03:33;6.93;;;6.20;;
3779;SDS011;1905;52.482;9.802;2022-07-30T05:06:01;6.20;;;5.03;;
3779;SDS011;1905;52.482;9.802;2022-07-30T05:08:34;10.37;;;5.50;;
3779;SDS011;1905;52.482;9.802;2022-07-30T05:11:05;5.17;;;4.67;;
3779;SDS011;1905;52.482;9.802;2022-07-30T05:13:33;4.33;;;3.93;;
3779;SDS011;1905;52.482;9.802;2022-07-30T05:16:05;5.70;;;5.20;;
3779;SDS011;1905;52.482;9.802;2022-07-30T05:18:35;5.93;;;5.33;;
3779;SDS011;1905;52.482;9.802;2022-07-30T05:21:03;5.07;;;4.57;;
3779;SDS011;1905;52.482;9.802;2022-07-30T05:23:39;5.57;;;4.20;;
3779;SDS011;1905;52.482;9.802;2022-07-30T05:26:21;4.70;;;4.17;;
3779;SDS011;1905;52.482;9.802;2022-07-30T05:28:54;6.60;;;5.70;;
3779;SDS011;1905;52.482;9.802;2022-07-30T05:31:28;8.07;;;6.13;;
3779;SDS011;1905;52.482;9.802;2022-07-30T05:34:02;8.10;;;5.87;;
3779;SDS011;1905;52.482;9.802;2022-07-30T05:36:38;6.40;;;5.80;;
3779;SDS011;1905;52.482;9.802;2022-07-30T05:39:09;6.23;;;5.00;;
3779;SDS011;1905;52.482;9.802;2022-07-30T05:42:11;6.33;;;3.83;;
3779;SDS011;1905;52.482;9.802;2022-07-30T05:44:44;7.80;;;4.87;;
3779;SDS011;1905;52.482;9.802;2022-07-30T05:47:12;6.20;;;4.90;;
3779;SDS011;1905;52.482;9.802;2022-07-30T05:49:41;5.60;;;5.17;;
3779;SDS011;1905;52.482;9.802;2022-07-30T05:52:12;5.03;;;4.50;;
3779;SDS011;1905;52.482;9.802;2022-07-30T05:54:41;9.47;;;6.87;;
3779;SDS011;1905;52.482;9.802;2022-07-30T05:57:28;6.37;;;5.67;;
3779;SDS011;1905;52.482;9.802;2022-07-30T05:59:56;5.87;;;5.23;;
3779;SDS011;1905;52.482;9.802;2022-07-30T06:02:41;6.53;;;4.50;;
3779;SDS011;1905;52.482;9.802;2022-07-30T06:05:25;4.47;;;4.07;;
3779;SDS011;1905;52.482;9.802;2022-07-30T06:07:57;4.97;;;4.40;;
3779;SDS011;1905;52.482;9.802;2022-07-30T06:10:26;8.03;;;5.20;;
3779;SDS011;1905;52.482;9.802;2022-07-30T06:12:54;6.23;;;5.63;;
3779;SDS011;1905;52.482;9.802;2022-07-30T06:15:21;8.63;;;6.47;;
3779;SDS011;1905;52.482;9.802;2022-07-30T06:17:52;6.53;;;5.80;;
3779;SDS011;1905;52.482;9.802;2022-07-30T06:20:38;7.60;;;6.80;;
3779;SDS011;1905;52.482;9.802;2022-07-30T06:23:23;6.50;;;5.70;;
3779;SDS011;1905;52.482;9.802;2022-07-30T06:26:07;4.33;;;4.00;;
3779;SDS011;1905;52.482;9.802;2022-07-30T06:28:35;5.97;;;5.13;;
3779;SDS011;1905;52.482;9.802;2022-07-30T06:31:13;5.17;;;4.30;;
3779;SDS011;1905;52.482;9.802;2022-07-30T06:33:41;7.23;;;5.57;;
3779;SDS011;1905;52.482;9.802;2022-07-30T06:36:11;8.17;;;4.17;;
3779;SDS011;1905;52.482;9.802;2022-07-30T06:38:58;7.93;;;5.10;;
3779;SDS011;1905;52.482;9.802;2022-07-30T06:41:40;5.80;;;5.20;;
3779;SDS011;1905;52.482;9.802;2022-07-30T06:44:12;6.20;;;5.60;;
3779;SDS011;1905;52.482;9.802;2022-07-30T06:46:59;4.43;;;4.00;;
3779;SDS011;1905;52.482;9.802;2022-07-30T06:49:35;8.23;;;5.07;;
3779;SDS011;1905;52.482;9.802;2022-07-30T06:52:07;5.30;;;4.70;;
3779;SDS011;1905;52.482;9.802;2022-07-30T06:54:35;6.40;;;5.33;;
3779;SDS011;1905;52.482;9.802;2022-07-30T06:57:15;7.60;;;5.67;;
3779;SDS011;1905;52.482;9.802;2022-07-30T06:59:43;5.57;;;5.07;;
3779;SDS011;1905;52.482;9.802;2022-07-30T07:02:27;8.33;;;5.67;;
3779;SDS011;1905;52.482;9.802;2022-07-30T07:05:21;5.97;;;5.37;;
3779;SDS011;1905;52.482;9.802;2022-07-30T07:07:51;6.77;;;5.00;;
3779;SDS011;1905;52.482;9.802;2022-07-30T07:10:29;7.07;;;5.00;;
3779;SDS011;1905;52.482;9.802;2022-07-30T07:13:11;5.80;;;4.63;;
3779;SDS011;1905;52.482;9.802;2022-07-30T07:15:38;5.83;;;5.23;;
3779;SDS011;1905;52.482;9.802;2022-07-30T07:18:11;5.27;;;4.77;;
3779;SDS011;1905;52.482;9.802;2022-07-30T07:20:46;5.13;;;4.67;;
3779;SDS011;1905;52.482;9.802;2022-07-30T07:23:15;4.87;;;4.47;;
3779;SDS011;1905;52.482;9.802;2022-07-30T07:25:47;5.20;;;4.53;;
3779;SDS011;1905;52.482;9.802;2022-07-30T07:28:15;7.33;;;5.07;;
3779;SDS011;1905;52.482;9.802;2022-07-30T07:30:45;5.17;;;4.67;;
3779;SDS011;1905;52.482;9.802;2022-07-30T07:33:13;5.83;;;4.70;;
3779;SDS011;1905;52.482;9.802;2022-07-30T07:35:44;5.57;;;5.00;;
3779;SDS011;1905;52.482;9.802;2022-07-30T07:38:21;6.67;;;4.50;;
3779;SDS011;1905;52.482;9.802;2022-07-30T07:40:51;5.90;;;4.87;;
3779;SDS011;1905;52.482;9.802;2022-07-30T07:43:20;6.00;;;5.10;;
3779;SDS011;1905;52.482;9.802;2022-07-30T07:45:48;5.80;;;5.03;;
3779;SDS011;1905;52.482;9.802;2022-07-30T07:48:16;7.77;;;4.43;;
3779;SDS011;1905;52.482;9.802;2022-07-30T07:50:58;5.33;;;4.80;;
3779;SDS011;1905;52.482;9.802;2022-07-30T07:53:30;4.43;;;4.10;;
3779;SDS011;1905;52.482;9.802;2022-07-30T07:55:58;8.50;;;4.33;;
3779;SDS011;1905;52.482;9.802;2022-07-30T07:58:26;5.77;;;4.10;;
3779;SDS011;1905;52.482;9.802;2022-07-30T08:00:58;8.60;;;4.67;;
3779;SDS011;1905;52.482;9.802;2022-07-30T08:03:46;5.13;;;3.57;;
3779;SDS011;1905;52.482;9.802;2022-07-30T08:06:34;4.60;;;3.97;;
3779;SDS011;1905;52.482;9.802;2022-07-30T08:09:40;4.37;;;3.97;;
3779;SDS011;1905;52.482;9.802;2022-07-30T08:12:39;5.37;;;4.20;;
3779;SDS011;1905;52.482;9.802;2022-07-30T08:15:25;4.30;;;3.90;;
3779;SDS011;1905;52.482;9.802;2022-07-30T08:18:28;4.87;;;3.43;;
3779;SDS011;1905;52.482;9.802;2022-07-30T08:21:08;6.20;;;3.50;;
3779;SDS011;1905;52.482;9.802;2022-07-30T08:23:35;7.37;;;3.70;;
3779;SDS011;1905;52.482;9.802;2022-07-30T08:26:09;6.53;;;3.47;;
3779;SDS011;1905;52.482;9.802;2022-07-30T08:28:36;3.10;;;2.40;;
3779;SDS011;1905;52.482;9.802;2022-07-30T08:31:05;3.33;;;3.03;;
3779;SDS011;1905;52.482;9.802;2022-07-30T08:33:33;5.00;;;2.90;;
3779;SDS011;1905;52.482;9.802;2022-07-30T08:36:02;5.20;;;3.47;;
3779;SDS011;1905;52.482;9.802;2022-07-30T08:38:35;4.33;;;3.23;;
3779;SDS011;1905;52.482;9.802;2022-07-30T08:41:04;4.90;;;3.10;;
3779;SDS011;1905;52.482;9.802;2022-07-30T08:43:35;3.60;;;2.80;;
3779;SDS011;1905;52.482;9.802;2022-07-30T08:46:06;3.40;;;3.10;;
3779;SDS011;1905;52.482;9.802;2022-07-30T08:48:48;3.50;;;2.90;;
3779;SDS011;1905;52.482;9.802;2022-07-30T08:51:18;2.90;;;2.70;;
3779;SDS011;1905;52.482;9.802;2022-07-30T08:54:09;3.40;;;3.10;;
3779;SDS011;1905;52.482;9.802;2022-07-30T08:56:39;3.67;;;3.20;;
3779;SDS011;1905;52.482;9.802;2022-07-30T08:59:08;5.53;;;3.33;;
3779;SDS011;1905;52.482;9.802;2022-07-30T09:01:37;3.47;;;3.17;;
3779;SDS011;1905;52.482;9.802;2022-07-30T09:04:04;3.10;;;2.90;;
3779;SDS011;1905;52.482;9.802;2022-07-30T09:06:32;3.50;;;2.70;;
3779;SDS011;1905;52.482;9.802;2022-07-30T09:09:02;2.90;;;2.70;;
3779;SDS011;1905;52.482;9.802;2022-07-30T09:11:29;4.43;;;3.40;;
3779;SDS011;1905;52.482;9.802;2022-07-30T09:14:07;3.07;;;2.70;;
3779;SDS011;1905;52.482;9.802;2022-07-30T09:16:36;3.60;;;2.63;;
3779;SDS011;1905;52.482;9.802;2022-07-30T09:19:12;2.90;;;2.70;;
3779;SDS011;1905;52.482;9.802;2022-07-30T09:21:53;6.60;;;4.10;;
3779;SDS011;1905;52.482;9.802;2022-07-30T09:24:30;3.80;;;2.80;;
3779;SDS011;1905;52.482;9.802;2022-07-30T09:27:27;3.57;;;3.20;;
3779;SDS011;1905;52.482;9.802;2022-07-30T09:30:47;2.87;;;2.67;;
3779;SDS011;1905;52.482;9.802;2022-07-30T09:33:36;7.83;;;3.20;;
3779;SDS011;1905;52.482;9.802;2022-07-30T09:36:30;4.57;;;2.60;;
3779;SDS011;1905;52.482;9.802;2022-07-30T09:39:33;3.00;;;2.70;;
3779;SDS011;1905;52.482;9.802;2022-07-30T09:42:18;4.00;;;3.00;;
3779;SDS011;1905;52.482;9.802;2022-07-30T09:44:49;3.47;;;2.90;;
3779;SDS011;1905;52.482;9.802;2022-07-30T09:47:30;3.03;;;2.60;;
3779;SDS011;1905;52.482;9.802;2022-07-30T09:50:02;3.30;;;3.00;;
3779;SDS011;1905;52.482;9.802;2022-07-30T09:52:33;3.50;;;3.20;;
3779;SDS011;1905;52.482;9.802;2022-07-30T09:55:01;4.10;;;2.90;;
3779;SDS011;1905;52.482;9.802;2022-07-30T09:57:29;2.60;;;2.40;;
3779;SDS011;1905;52.482;9.802;2022-07-30T10:00:15;3.90;;;3.07;;
3779;SDS011;1905;52.482;9.802;2022-07-30T10:03:13;3.60;;;3.10;;
3779;SDS011;1905;52.482;9.802;2022-07-30T10:06:18;3.70;;;3.10;;
3779;SDS011;1905;52.482;9.802;2022-07-30T10:08:58;4.13;;;3.10;;
3779;SDS011;1905;52.482;9.802;2022-07-30T10:11:39;2.83;;;2.60;;
3779;SDS011;1905;52.482;9.802;2022-07-30T10:14:07;4.20;;;3.10;;
3779;SDS011;1905;52.482;9.802;2022-07-30T10:16:35;3.30;;;3.00;;
3779;SDS011;1905;52.482;9.802;2022-07-30T10:19:05;3.33;;;3.03;;
3779;SDS011;1905;52.482;9.802;2022-07-30T10:22:22;5.40;;;3.20;;
3779;SDS011;1905;52.482;9.802;2022-07-30T10:24:57;3.20;;;2.90;;
3779;SDS011;1905;52.482;9.802;2022-07-30T10:27:54;3.00;;;2.77;;
3779;SDS011;1905;52.482;9.802;2022-07-30T10:30:28;3.23;;;2.93;;
3779;SDS011;1905;52.482;9.802;2022-07-30T10:32:58;3.20;;;2.90;;
3779;SDS011;1905;52.482;9.802;2022-07-30T10:35:28;3.40;;;3.20;;
3779;SDS011;1905;52.482;9.802;2022-07-30T10:38:02;3.50;;;3.20;;
3779;SDS011;1905;52.482;9.802;2022-07-30T10:40:35;4.50;;;3.00;;
3779;SDS011;1905;52.482;9.802;2022-07-30T10:43:15;3.80;;;3.50;;
3779;SDS011;1905;52.482;9.802;2022-07-30T10:45:58;4.53;;;3.67;;
3779;SDS011;1905;52.482;9.802;2022-07-30T10:48:45;5.10;;;3.47;;
3779;SDS011;1905;52.482;9.802;2022-07-30T10:51:15;6.37;;;3.57;;
3779;SDS011;1905;52.482;9.802;2022-07-30T10:53:59;3.83;;;3.53;;
3779;SDS011;1905;52.482;9.802;2022-07-30T10:56:27;5.73;;;3.30;;
3779;SDS011;1905;52.482;9.802;2022-07-30T10:58:58;3.73;;;3.43;;
3779;SDS011;1905;52.482;9.802;2022-07-30T11:04:33;3.60;;;3.00;;
3779;SDS011;1905;52.482;9.802;2022-07-30T11:09:57;4.90;;;3.50;;
3779;SDS011;1905;52.482;9.802;2022-07-30T11:12:51;6.50;;;3.60;;
3779;SDS011;1905;52.482;9.802;2022-07-30T11:15:20;4.43;;;3.57;;
3779;SDS011;1905;52.482;9.802;2022-07-30T11:17:59;5.60;;;3.50;;
3779;SDS011;1905;52.482;9.802;2022-07-30T11:20:38;5.73;;;4.00;;
3779;SDS011;1905;52.482;9.802;2022-07-30T11:23:35;3.50;;;3.00;;
3779;SDS011;1905;52.482;9.802;2022-07-30T11:26:05;3.83;;;3.43;;
3779;SDS011;1905;52.482;9.802;2022-07-30T11:28:40;4.13;;;3.33;;
3779;SDS011;1905;52.482;9.802;2022-07-30T11:31:29;3.23;;;2.87;;
3779;SDS011;1905;52.482;9.802;2022-07-30T11:34:27;4.40;;;3.40;;
3779;SDS011;1905;52.482;9.802;2022-07-30T11:37:06;4.03;;;3.63;;
3779;SDS011;1905;52.482;9.802;2022-07-30T11:42:39;3.17;;;2.90;;
3779;SDS011;1905;52.482;9.802;2022-07-30T11:45:21;3.53;;;3.10;;
3779;SDS011;1905;52.482;9.802;2022-07-30T11:47:53;3.67;;;2.90;;
3779;SDS011;1905;52.482;9.802;2022-07-30T11:50:22;3.97;;;3.00;;
3779;SDS011;1905;52.482;9.802;2022-07-30T11:52:52;4.33;;;3.53;;
3779;SDS011;1905;52.482;9.802;2022-07-30T11:55:23;3.67;;;3.20;;
3779;SDS011;1905;52.482;9.802;2022-07-30T11:57:52;3.93;;;3.17;;
3779;SDS011;1905;52.482;9.802;2022-07-30T12:00:20;3.57;;;3.27;;
3779;SDS011;1905;52.482;9.802;2022-07-30T12:02:48;4.07;;;2.90;;
3779;SDS011;1905;52.482;9.802;2022-07-30T12:05:21;3.23;;;2.87;;
3779;SDS011;1905;52.482;9.802;2022-07-30T12:07:54;4.27;;;3.40;;
3779;SDS011;1905;52.482;9.802;2022-07-30T12:10:24;8.23;;;3.73;;
3779;SDS011;1905;52.482;9.802;2022-07-30T12:12:53;5.33;;;3.40;;
3779;SDS011;1905;52.482;9.802;2022-07-30T12:15:34;4.60;;;3.77;;
3779;SDS011;1905;52.482;9.802;2022-07-30T12:18:03;4.00;;;3.23;;
3779;SDS011;1905;52.482;9.802;2022-07-30T12:20:57;4.77;;;3.60;;
3779;SDS011;1905;52.482;9.802;2022-07-30T12:23:26;4.20;;;3.90;;
3779;SDS011;1905;52.482;9.802;2022-07-30T12:25:56;4.03;;;3.63;;
3779;SDS011;1905;52.482;9.802;2022-07-30T12:28:25;3.83;;;3.43;;
3779;SDS011;1905;52.482;9.802;2022-07-30T12:30:54;4.70;;;3.87;;
3779;SDS011;1905;52.482;9.802;2022-07-30T12:33:23;3.20;;;2.90;;
3779;SDS011;1905;52.482;9.802;2022-07-30T12:35:51;8.40;;;3.60;;
3779;SDS011;1905;52.482;9.802;2022-07-30T12:38:21;3.40;;;3.10;;
3779;SDS011;1905;52.482;9.802;2022-07-30T12:40:50;5.60;;;3.50;;
3779;SDS011;1905;52.482;9.802;2022-07-30T12:46:14;3.60;;;3.30;;
3779;SDS011;1905;52.482;9.802;2022-07-30T12:48:53;3.83;;;3.53;;
3779;SDS011;1905;52.482;9.802;2022-07-30T12:51:24;5.33;;;3.40;;
3779;SDS011;1905;52.482;9.802;2022-07-30T12:53:53;3.97;;;3.63;;
3779;SDS011;1905;52.482;9.802;2022-07-30T12:56:22;3.03;;;2.83;;
3779;SDS011;1905;52.482;9.802;2022-07-30T12:58:52;4.40;;;2.60;;
3779;SDS011;1905;52.482;9.802;2022-07-30T13:04:06;2.67;;;2.47;;
3779;SDS011;1905;52.482;9.802;2022-07-30T13:06:34;2.97;;;2.70;;
3779;SDS011;1905;52.482;9.802;2022-07-30T13:09:03;5.70;;;3.50;;
3779;SDS011;1905;52.482;9.802;2022-07-30T13:11:38;3.10;;;2.80;;
3779;SDS011;1905;52.482;9.802;2022-07-30T13:14:15;2.67;;;2.47;;
3779;SDS011;1905;52.482;9.802;2022-07-30T13:16:42;3.13;;;2.87;;
3779;SDS011;1905;52.482;9.802;2022-07-30T13:19:10;3.30;;;3.00;;
3779;SDS011;1905;52.482;9.802;2022-07-30T13:21:39;3.10;;;2.60;;
3779;SDS011;1905;52.482;9.802;2022-07-30T13:24:15;4.00;;;2.70;;
3779;SDS011;1905;52.482;9.802;2022-07-30T13:26:43;2.60;;;2.40;;
3779;SDS011;1905;52.482;9.802;2022-07-30T13:29:11;3.50;;;3.20;;
3779;SDS011;1905;52.482;9.802;2022-07-30T13:31:40;3.13;;;2.83;;
3779;SDS011;1905;52.482;9.802;2022-07-30T13:34:08;5.17;;;3.57;;
3779;SDS011;1905;52.482;9.802;2022-07-30T13:36:36;4.13;;;2.70;;
3779;SDS011;1905;52.482;9.802;2022-07-30T13:39:04;3.07;;;2.87;;
3779;SDS011;1905;52.482;9.802;2022-07-30T13:41:31;3.50;;;2.80;;
3779;SDS011;1905;52.482;9.802;2022-07-30T13:44:01;3.00;;;2.53;;
3779;SDS011;1905;52.482;9.802;2022-07-30T13:46:28;5.53;;;2.63;;
3779;SDS011;1905;52.482;9.802;2022-07-30T13:48:57;3.43;;;2.50;;
3779;SDS011;1905;52.482;9.802;2022-07-30T13:51:25;4.40;;;3.00;;
3779;SDS011;1905;52.482;9.802;2022-07-30T13:53:53;6.47;;;2.50;;
3779;SDS011;1905;52.482;9.802;2022-07-30T13:56:21;3.90;;;2.83;;
3779;SDS011;1905;52.482;9.802;2022-07-30T13:58:48;3.60;;;3.30;;
3779;SDS011;1905;52.482;9.802;2022-07-30T14:01:16;3.53;;;2.40;;
3779;SDS011;1905;52.482;9.802;2022-07-30T14:03:43;4.97;;;3.90;;
3779;SDS011;1905;52.482;9.802;2022-07-30T14:06:17;7.13;;;2.90;;
3779;SDS011;1905;52.482;9.802;2022-07-30T14:08:45;2.63;;;2.43;;
3779;SDS011;1905;52.482;9.802;2022-07-30T14:11:13;5.70;;;3.47;;
3779;SDS011;1905;52.482;9.802;2022-07-30T14:13:42;2.93;;;2.73;;
3779;SDS011;1905;52.482;9.802;2022-07-30T14:16:10;3.63;;;3.17;;
3779;SDS011;1905;52.482;9.802;2022-07-30T14:18:57;4.70;;;3.33;;
3779;SDS011;1905;52.482;9.802;2022-07-30T14:21:26;3.37;;;2.60;;
3779;SDS011;1905;52.482;9.802;2022-07-30T14:23:54;5.90;;;2.90;;
3779;SDS011;1905;52.482;9.802;2022-07-30T14:26:22;5.60;;;3.07;;
3779;SDS011;1905;52.482;9.802;2022-07-30T14:28:55;3.17;;;2.87;;
3779;SDS011;1905;52.482;9.802;2022-07-30T14:31:23;2.90;;;2.67;;
3779;SDS011;1905;52.482;9.802;2022-07-30T14:33:51;3.77;;;3.47;;
3779;SDS011;1905;52.482;9.802;2022-07-30T14:36:18;3.07;;;2.60;;
3779;SDS011;1905;52.482;9.802;2022-07-30T14:38:47;4.10;;;2.90;;
3779;SDS011;1905;52.482;9.802;2022-07-30T14:41:19;3.77;;;3.00;;
3779;SDS011;1905;52.482;9.802;2022-07-30T14:43:47;4.90;;;3.40;;
3779;SDS011;1905;52.482;9.802;2022-07-30T14:46:14;2.97;;;2.67;;
3779;SDS011;1905;52.482;9.802;2022-07-30T14:48:42;3.10;;;2.80;;
3779;SDS011;1905;52.482;9.802;2022-07-30T14:51:09;4.47;;;2.97;;
3779;SDS011;1905;52.482;9.802;2022-07-30T14:53:48;4.13;;;3.17;;
3779;SDS011;1905;52.482;9.802;2022-07-30T14:56:16;5.07;;;2.80;;
3779;SDS011;1905;52.482;9.802;2022-07-30T14:58:44;3.73;;;3.17;;
3779;SDS011;1905;52.482;9.802;2022-07-30T15:01:12;3.90;;;2.87;;
3779;SDS011;1905;52.482;9.802;2022-07-30T15:03:42;4.10;;;3.37;;
3779;SDS011;1905;52.482;9.802;2022-07-30T15:06:09;3.17;;;2.87;;
3779;SDS011;1905;52.482;9.802;2022-07-30T15:08:38;3.70;;;3.40;;
3779;SDS011;1905;52.482;9.802;2022-07-30T15:11:06;4.77;;;3.10;;
3779;SDS011;1905;52.482;9.802;2022-07-30T15:13:35;3.57;;;3.27;;
3779;SDS011;1905;52.482;9.802;2022-07-30T15:16:15;4.30;;;3.90;;
3779;SDS011;1905;52.482;9.802;2022-07-30T15:18:43;4.10;;;3.70;;
3779;SDS011;1905;52.482;9.802;2022-07-30T15:21:11;5.57;;;4.07;;
3779;SDS011;1905;52.482;9.802;2022-07-30T15:23:38;4.10;;;3.23;;
3779;SDS011;1905;52.482;9.802;2022-07-30T15:26:07;8.20;;;4.00;;
3779;SDS011;1905;52.482;9.802;2022-07-30T15:28:35;4.60;;;3.80;;
3779;SDS011;1905;52.482;9.802;2022-07-30T15:31:03;6.20;;;3.70;;
3779;SDS011;1905;52.482;9.802;2022-07-30T15:33:31;6.43;;;4.30;;
3779;SDS011;1905;52.482;9.802;2022-07-30T15:36:02;4.03;;;3.63;;
3779;SDS011;1905;52.482;9.802;2022-07-30T15:38:30;3.93;;;3.50;;
3779;SDS011;1905;52.482;9.802;2022-07-30T15:40:57;4.20;;;3.80;;
3779;SDS011;1905;52.482;9.802;2022-07-30T15:43:26;3.63;;;3.03;;
3779;SDS011;1905;52.482;9.802;2022-07-30T15:45:54;4.70;;;3.50;;
3779;SDS011;1905;52.482;9.802;2022-07-30T15:48:22;3.90;;;3.53;;
3779;SDS011;1905;52.482;9.802;2022-07-30T15:50:52;3.90;;;3.27;;
3779;SDS011;1905;52.482;9.802;2022-07-30T15:53:20;3.73;;;3.43;;
3779;SDS011;1905;52.482;9.802;2022-07-30T15:55:47;8.30;;;3.93;;
3779;SDS011;1905;52.482;9.802;2022-07-30T15:58:15;4.90;;;3.93;;
3779;SDS011;1905;52.482;9.802;2022-07-30T16:00:45;4.50;;;3.87;;
3779;SDS011;1905;52.482;9.802;2022-07-30T16:03:12;4.57;;;4.27;;
3779;SDS011;1905;52.482;9.802;2022-07-30T16:05:40;5.23;;;3.70;;